createdAt,value
2019-03-25T00:02:16.534Z,102318.00
2019-03-25T00:04:49.274Z,102316.00
2019-03-25T00:07:24.285Z,102307.00
2019-03-25T00:10:04.056Z,102309.00
2019-03-25T00:12:36.473Z,102308.00
2019-03-25T00:15:11.273Z,102310.00
2019-03-25T00:17:44.396Z,102308.00
2019-03-25T00:20:17.205Z,102306.00
2019-03-25T00:22:50.061Z,102299.00
2019-03-25T00:25:23.013Z,102307.00
2019-03-25T00:27:55.856Z,102301.00
2019-03-25T00:30:28.890Z,102299.00
2019-03-25T00:33:02.194Z,102304.00
2019-03-25T00:35:35.288Z,102301.00
2019-03-25T00:38:07.965Z,102301.00
2019-03-25T00:40:40.894Z,102304.00
2019-03-25T00:43:13.944Z,102301.00
2019-03-25T00:45:46.778Z,102290.00
2019-03-25T00:48:19.500Z,102290.00
2019-03-25T00:50:53.803Z,102293.00
2019-03-25T00:53:26.705Z,102289.00
2019-03-25T00:55:59.699Z,102297.00
2019-03-25T00:58:32.676Z,102294.00
2019-03-25T01:01:05.774Z,102286.00
2019-03-25T01:03:38.533Z,102290.00
2019-03-25T01:06:11.387Z,102285.00
2019-03-25T01:08:44.683Z,102291.00
2019-03-25T01:11:18.304Z,102292.00
2019-03-25T01:13:51.145Z,102284.00
2019-03-25T01:16:24.619Z,102293.00
2019-03-25T01:18:58.317Z,102286.00
2019-03-25T01:21:32.707Z,102282.00
2019-03-25T01:24:06.278Z,102277.00
2019-03-25T01:26:39.705Z,102278.00
2019-03-25T01:29:13.164Z,102276.00
2019-03-25T01:31:46.999Z,102276.00
2019-03-25T01:34:20.186Z,102272.00
2019-03-25T01:36:53.651Z,102279.00
2019-03-25T01:39:26.808Z,102274.00
2019-03-25T01:42:00.295Z,102274.00
2019-03-25T01:44:33.513Z,102267.00
2019-03-25T01:47:06.981Z,102262.00
2019-03-25T01:49:40.233Z,102257.00
2019-03-25T01:52:13.588Z,102254.00
2019-03-25T01:54:47.656Z,102257.00
2019-03-25T01:57:21.495Z,102257.00
2019-03-25T01:59:54.546Z,102255.00
2019-03-25T02:02:28.064Z,102254.00
2019-03-25T02:05:00.743Z,102252.00
2019-03-25T02:07:34.937Z,102238.00
2019-03-25T02:10:09.166Z,102241.00
2019-03-25T02:12:42.908Z,102240.00
2019-03-25T02:15:15.792Z,102241.00
2019-03-25T02:17:49.180Z,102237.00
2019-03-25T02:20:26.209Z,102243.00
2019-03-25T02:22:56.063Z,102240.00
2019-03-25T02:25:28.859Z,102230.00
2019-03-25T02:28:01.524Z,102225.00
2019-03-25T02:30:35.189Z,102221.00
2019-03-25T02:33:07.896Z,102232.00
2019-03-25T02:35:41.860Z,102222.00
2019-03-25T02:38:14.740Z,102224.00
2019-03-25T02:40:47.605Z,102213.00
2019-03-25T02:43:21.070Z,102210.00
2019-03-25T02:45:53.529Z,102209.00
2019-03-25T02:48:27.266Z,102210.00
2019-03-25T02:50:59.623Z,102216.00
2019-03-25T02:53:33.713Z,102212.00
2019-03-25T02:56:06.416Z,102219.00
2019-03-25T02:58:40.186Z,102207.00
2019-03-25T03:01:13.210Z,102208.00
2019-03-25T03:03:45.882Z,102210.00
2019-03-25T03:06:18.689Z,102211.00
2019-03-25T03:08:51.372Z,102211.00
2019-03-25T03:11:23.880Z,102204.00
2019-03-25T03:13:56.705Z,102216.00
2019-03-25T03:16:29.670Z,102223.00
2019-03-25T03:19:02.399Z,102226.00
2019-03-25T03:21:35.241Z,102232.00
2019-03-25T03:24:08.058Z,102232.00
2019-03-25T03:26:41.845Z,102240.00
2019-03-25T03:29:15.483Z,102238.00
2019-03-25T03:31:49.101Z,102242.00
2019-03-25T03:34:22.755Z,102244.00
2019-03-25T03:36:55.894Z,102249.00
2019-03-25T03:39:28.527Z,102249.00
2019-03-25T03:42:01.351Z,102250.00
2019-03-25T03:44:34.161Z,102235.00
2019-03-25T03:47:07.424Z,102237.00
2019-03-25T03:49:40.433Z,102231.00
2019-03-25T03:52:13.251Z,102234.00
2019-03-25T03:54:46.535Z,102228.00
2019-03-25T03:57:19.338Z,102226.00
2019-03-25T03:59:52.532Z,102236.00
2019-03-25T04:02:25.526Z,102230.00
2019-03-25T04:04:58.252Z,102225.00
2019-03-25T04:07:32.063Z,102228.00
2019-03-25T04:10:04.886Z,102237.00
2019-03-25T04:12:37.657Z,102220.00
2019-03-25T04:15:11.394Z,102222.00
2019-03-25T04:17:44.081Z,102207.00
2019-03-25T04:20:17.482Z,102215.00
2019-03-25T04:22:50.240Z,102216.00
2019-03-25T04:25:23.147Z,102226.00
2019-03-25T04:27:56.001Z,102223.00
2019-03-25T04:30:28.431Z,102223.00
2019-03-25T04:33:01.508Z,102232.00
2019-03-25T04:35:34.532Z,102227.00
2019-03-25T04:38:07.300Z,102226.00
2019-03-25T04:40:40.361Z,102226.00
2019-03-25T04:43:13.355Z,102222.00
2019-03-25T04:45:46.034Z,102219.00
2019-03-25T04:48:18.842Z,102220.00
2019-03-25T04:50:51.745Z,102224.00
2019-03-25T04:53:24.349Z,102227.00
2019-03-25T04:55:57.256Z,102227.00
2019-03-25T04:58:30.079Z,102238.00
2019-03-25T05:01:03.179Z,102235.00
2019-03-25T05:03:35.558Z,102237.00
2019-03-25T05:06:08.137Z,102244.00
2019-03-25T05:08:41.408Z,102232.00
2019-03-25T05:11:14.910Z,102246.00
2019-03-25T05:13:48.186Z,102243.00
2019-03-25T05:16:20.987Z,102247.00
2019-03-25T05:18:53.914Z,102248.00
2019-03-25T05:21:27.059Z,102242.00
2019-03-25T05:23:59.872Z,102242.00
2019-03-25T05:26:32.916Z,102243.00
2019-03-25T05:29:05.505Z,102248.00
2019-03-25T05:31:38.263Z,102245.00
2019-03-25T05:34:12.658Z,102244.00
2019-03-25T05:36:45.664Z,102243.00
2019-03-25T05:39:18.238Z,102239.00
2019-03-25T05:41:51.212Z,102241.00
2019-03-25T05:44:24.053Z,102242.00
2019-03-25T05:46:57.232Z,102248.00
2019-03-25T05:49:29.918Z,102244.00
2019-03-25T05:52:02.970Z,102242.00
2019-03-25T05:54:35.670Z,102244.00
2019-03-25T05:57:08.489Z,102252.00
2019-03-25T05:59:41.249Z,102249.00
2019-03-25T06:02:14.314Z,102261.00
2019-03-25T06:04:47.012Z,102253.00
2019-03-25T06:07:20.143Z,102259.00
2019-03-25T06:09:52.996Z,102258.00
2019-03-25T06:12:25.848Z,102254.00
2019-03-25T06:14:58.518Z,102252.00
2019-03-25T06:17:31.239Z,102260.00
2019-03-25T06:20:04.682Z,102256.00
2019-03-25T06:22:37.444Z,102261.00
2019-03-25T06:25:14.715Z,102266.00
2019-03-25T06:27:47.257Z,102264.00
2019-03-25T06:30:19.949Z,102268.00
2019-03-25T06:32:53.502Z,102273.00
2019-03-25T06:35:26.424Z,102259.00
2019-03-25T06:37:59.077Z,102270.00
2019-03-25T06:40:31.775Z,102264.00
2019-03-25T06:43:04.554Z,102269.00
2019-03-25T06:45:37.482Z,102264.00
2019-03-25T06:48:10.064Z,102266.00
2019-03-25T06:50:43.135Z,102271.00
2019-03-25T06:53:15.988Z,102271.00
2019-03-25T06:55:48.574Z,102271.00
2019-03-25T06:58:21.500Z,102271.00
2019-03-25T07:00:54.283Z,102270.00
2019-03-25T07:03:29.740Z,102282.00
2019-03-25T07:06:01.971Z,102282.00
2019-03-25T07:08:35.464Z,102283.00
2019-03-25T07:11:08.668Z,102272.00
2019-03-25T07:13:41.497Z,102279.00
2019-03-25T07:16:14.445Z,102281.00
2019-03-25T07:18:47.526Z,102283.00
2019-03-25T07:21:20.699Z,102279.00
2019-03-25T07:23:53.874Z,102275.00
2019-03-25T07:26:27.140Z,102266.00
2019-03-25T07:29:00.349Z,102271.00
2019-03-25T07:31:33.401Z,102278.00
2019-03-25T07:34:06.768Z,102281.00
2019-03-25T07:36:40.638Z,102283.00
2019-03-25T07:39:13.606Z,102287.00
2019-03-25T07:41:46.871Z,102291.00
2019-03-25T07:44:19.737Z,102295.00
2019-03-25T07:46:52.777Z,102307.00
2019-03-25T07:49:25.713Z,102307.00
2019-03-25T07:51:58.905Z,102308.00
2019-03-25T07:54:32.104Z,102315.00
2019-03-25T07:57:05.408Z,102306.00
2019-03-25T07:59:39.499Z,102324.00
2019-03-25T08:02:15.151Z,102313.00
2019-03-25T08:04:47.038Z,102321.00
2019-03-25T08:07:20.070Z,102317.00
2019-03-25T08:09:52.965Z,102319.00
2019-03-25T08:12:26.073Z,102321.00
2019-03-25T08:14:58.867Z,102317.00
2019-03-25T08:17:31.995Z,102320.00
2019-03-25T08:20:04.938Z,102321.00
2019-03-25T08:22:38.399Z,102308.00
2019-03-25T08:25:11.547Z,102314.00
2019-03-25T08:27:44.602Z,102319.00
2019-03-25T08:30:17.416Z,102316.00
2019-03-25T08:32:50.470Z,102316.00
2019-03-25T08:35:23.483Z,102311.00
2019-03-25T08:37:57.093Z,102308.00
2019-03-25T08:40:29.988Z,102309.00
2019-03-25T08:43:03.289Z,102303.00
2019-03-25T08:45:36.224Z,102300.00
2019-03-25T08:48:09.493Z,102310.00
2019-03-25T08:50:43.723Z,102304.00
2019-03-25T08:53:16.636Z,102306.00
2019-03-25T08:55:49.423Z,102306.00
2019-03-25T08:58:23.259Z,102312.00
2019-03-25T09:00:56.105Z,102313.00
2019-03-25T09:03:29.137Z,102316.00
2019-03-25T09:06:01.952Z,102323.00
2019-03-25T09:08:35.184Z,102329.00
2019-03-25T09:11:08.039Z,102329.00
2019-03-25T09:13:40.960Z,102330.00
2019-03-25T09:16:14.395Z,102337.00
2019-03-25T09:18:48.637Z,102327.00
2019-03-25T09:21:21.658Z,102332.00
2019-03-25T09:23:54.850Z,102329.00
2019-03-25T09:26:28.233Z,102326.00
2019-03-25T09:29:01.026Z,102327.00
2019-03-25T09:31:36.968Z,102337.00
2019-03-25T09:34:08.512Z,102335.00
2019-03-25T09:36:41.659Z,102337.00
2019-03-25T09:39:14.665Z,102337.00
2019-03-25T09:41:47.683Z,102341.00
2019-03-25T09:44:20.758Z,102353.00
2019-03-25T09:46:54.062Z,102355.00
2019-03-25T09:49:27.259Z,102343.00
2019-03-25T09:52:00.476Z,102352.00
2019-03-25T09:54:33.540Z,102352.00
2019-03-25T09:57:06.332Z,102352.00
2019-03-25T09:59:40.520Z,102348.00
2019-03-25T10:02:13.539Z,102344.00
2019-03-25T10:04:46.400Z,102341.00
2019-03-25T10:07:28.298Z,102344.00
2019-03-25T10:10:00.423Z,102342.00
2019-03-25T10:12:33.475Z,102338.00
2019-03-25T10:15:06.505Z,102341.00
2019-03-25T10:17:39.459Z,102347.00
2019-03-25T10:20:12.858Z,102347.00
2019-03-25T10:22:45.964Z,102339.00
2019-03-25T10:25:19.139Z,102344.00
2019-03-25T10:27:55.219Z,102349.00
2019-03-25T10:30:28.182Z,102350.00
2019-03-25T10:33:00.918Z,102355.00
2019-03-25T10:35:34.054Z,102346.00
2019-03-25T10:38:18.892Z,102333.00
2019-03-25T10:40:41.460Z,102341.00
2019-03-25T10:43:14.631Z,102336.00
2019-03-25T10:45:47.842Z,102342.00
2019-03-25T10:48:21.072Z,102338.00
2019-03-25T10:50:54.028Z,102336.00
2019-03-25T10:53:27.296Z,102340.00
2019-03-25T10:56:00.053Z,102338.00
2019-03-25T10:58:33.220Z,102339.00
2019-03-25T11:01:06.145Z,102344.00
2019-03-25T11:03:39.385Z,102349.00
2019-03-25T11:06:12.353Z,102343.00
2019-03-25T11:08:45.254Z,102355.00
2019-03-25T11:11:18.310Z,102353.00
2019-03-25T11:13:51.389Z,102355.00
2019-03-25T11:16:24.484Z,102365.00
2019-03-25T11:18:57.710Z,102353.00
2019-03-25T11:21:31.147Z,102357.00
2019-03-25T11:24:04.027Z,102356.00
2019-03-25T11:26:37.059Z,102354.00
2019-03-25T11:29:10.215Z,102362.00
2019-03-25T11:31:43.167Z,102367.00
2019-03-25T11:34:16.201Z,102366.00
2019-03-25T11:36:49.189Z,102374.00
2019-03-25T11:39:22.226Z,102368.00
2019-03-25T11:41:56.041Z,102365.00
2019-03-25T11:44:29.130Z,102378.00
2019-03-25T11:47:02.173Z,102378.00
2019-03-25T11:49:35.356Z,102376.00
2019-03-25T11:52:08.993Z,102374.00
2019-03-25T11:54:41.949Z,102384.00
2019-03-25T11:57:15.126Z,102393.00
2019-03-25T11:59:47.913Z,102390.00
2019-03-25T12:02:21.105Z,102398.00
2019-03-25T12:04:53.965Z,102385.00
2019-03-25T12:07:27.113Z,102384.00
2019-03-25T12:10:00.477Z,102387.00
2019-03-25T12:12:33.474Z,102389.00
2019-03-25T12:15:07.489Z,102390.00
2019-03-25T12:17:40.346Z,102400.00
2019-03-25T12:20:14.107Z,102414.00
2019-03-25T12:22:47.247Z,102421.00
2019-03-25T12:25:20.442Z,102413.00
2019-03-25T12:27:53.748Z,102419.00
2019-03-25T12:30:27.212Z,102412.00
2019-03-25T12:33:03.928Z,102411.00
2019-03-25T12:35:34.813Z,102408.00
2019-03-25T12:38:07.798Z,102414.00
2019-03-25T12:40:40.868Z,102413.00
2019-03-25T12:43:13.865Z,102409.00
2019-03-25T12:45:47.117Z,102414.00
2019-03-25T12:48:20.061Z,102410.00
2019-03-25T12:50:53.105Z,102406.00
2019-03-25T12:53:25.864Z,102412.00
2019-03-25T12:55:59.006Z,102412.00
2019-03-25T12:58:32.006Z,102394.00
2019-03-25T13:01:04.934Z,102403.00
2019-03-25T13:03:37.614Z,102397.00
2019-03-25T13:06:10.535Z,102397.00
2019-03-25T13:08:43.286Z,102403.00
2019-03-25T13:11:16.494Z,102399.00
2019-03-25T13:13:49.127Z,102400.00
2019-03-25T13:16:22.199Z,102391.00
2019-03-25T13:18:55.113Z,102389.00
2019-03-25T13:21:28.197Z,102386.00
2019-03-25T13:24:01.338Z,102389.00
2019-03-25T13:26:34.513Z,102383.00
2019-03-25T13:29:07.816Z,102385.00
2019-03-25T13:31:41.195Z,102387.00
2019-03-25T13:34:14.059Z,102391.00
2019-03-25T13:36:46.867Z,102389.00
2019-03-25T13:39:19.983Z,102390.00
2019-03-25T13:41:53.195Z,102396.00
2019-03-25T13:44:26.171Z,102393.00
2019-03-25T13:46:59.160Z,102402.00
2019-03-25T13:49:31.928Z,102404.00
2019-03-25T13:52:05.192Z,102393.00
2019-03-25T13:54:38.089Z,102388.00
2019-03-25T13:57:11.076Z,102370.00
2019-03-25T13:59:44.065Z,102359.00
2019-03-25T14:02:17.174Z,102351.00
2019-03-25T14:04:50.158Z,102364.00
2019-03-25T14:07:23.373Z,102352.00
2019-03-25T14:09:56.341Z,102349.00
2019-03-25T14:12:29.308Z,102358.00
2019-03-25T14:15:02.202Z,102352.00
2019-03-25T14:17:35.561Z,102348.00
2019-03-25T14:20:10.657Z,102356.00
2019-03-25T14:22:43.936Z,102345.00
2019-03-25T14:25:16.809Z,102336.00
2019-03-25T14:27:50.122Z,102324.00
2019-03-25T14:30:23.086Z,102318.00
2019-03-25T14:32:56.626Z,102311.00
2019-03-25T14:35:29.596Z,102318.00
2019-03-25T14:38:02.630Z,102310.00
2019-03-25T14:40:35.435Z,102309.00
2019-03-25T14:43:08.745Z,102306.00
2019-03-25T14:45:41.724Z,102295.00
2019-03-25T14:48:15.063Z,102292.00
2019-03-25T14:50:47.948Z,102299.00
2019-03-25T14:53:21.182Z,102292.00
2019-03-25T14:55:54.068Z,102292.00
2019-03-25T14:58:27.569Z,102280.00
2019-03-25T15:01:00.109Z,102288.00
2019-03-25T15:03:33.238Z,102293.00
2019-03-25T15:06:06.233Z,102291.00
2019-03-25T15:08:39.426Z,102289.00
2019-03-25T15:11:12.194Z,102285.00
2019-03-25T15:13:45.286Z,102278.00
2019-03-25T15:16:18.187Z,102276.00
2019-03-25T15:18:51.149Z,102269.00
2019-03-25T15:21:24.136Z,102264.00
2019-03-25T15:23:56.902Z,102268.00
2019-03-25T15:26:29.830Z,102260.00
2019-03-25T15:29:02.834Z,102256.00
2019-03-25T15:31:36.103Z,102252.00
2019-03-25T15:34:08.944Z,102255.00
2019-03-25T15:36:42.059Z,102267.00
2019-03-25T15:39:14.915Z,102266.00
2019-03-25T15:41:48.009Z,102267.00
2019-03-25T15:44:20.697Z,102250.00
2019-03-25T15:46:55.870Z,102244.00
2019-03-25T15:49:27.629Z,102248.00
2019-03-25T15:52:00.770Z,102246.00
2019-03-25T15:54:33.851Z,102248.00
2019-03-25T15:57:06.713Z,102251.00
2019-03-25T15:59:39.951Z,102248.00
2019-03-25T16:02:12.731Z,102255.00
2019-03-25T16:04:45.978Z,102247.00
2019-03-25T16:07:18.730Z,102244.00
2019-03-25T16:09:51.881Z,102246.00
2019-03-25T16:12:24.954Z,102236.00
2019-03-25T16:14:57.655Z,102241.00
2019-03-25T16:17:30.687Z,102236.00
2019-03-25T16:20:03.523Z,102230.00
2019-03-25T16:22:36.245Z,102230.00
2019-03-25T16:25:14.046Z,102226.00
2019-03-25T16:27:47.022Z,102227.00
2019-03-25T16:30:20.646Z,102218.00
2019-03-25T16:32:53.503Z,102208.00
2019-03-25T16:35:26.815Z,102215.00
2019-03-25T16:37:59.694Z,102205.00
2019-03-25T16:40:32.666Z,102208.00
2019-03-25T16:43:05.351Z,102209.00
2019-03-25T16:45:38.530Z,102205.00
2019-03-25T16:48:11.878Z,102211.00
2019-03-25T16:50:45.197Z,102210.00
2019-03-25T16:53:18.025Z,102213.00
2019-03-25T16:55:51.302Z,102192.00
2019-03-25T16:58:24.105Z,102199.00
2019-03-25T17:00:57.239Z,102198.00
2019-03-25T17:03:30.023Z,102202.00
2019-03-25T17:06:03.331Z,102202.00
2019-03-25T17:08:35.996Z,102211.00
2019-03-25T17:11:08.890Z,102219.00
2019-03-25T17:13:41.638Z,102214.00
2019-03-25T17:16:15.015Z,102208.00
2019-03-25T17:18:47.960Z,102208.00
2019-03-25T17:21:20.963Z,102210.00
2019-03-25T17:23:53.979Z,102218.00
2019-03-25T17:26:27.132Z,102215.00
2019-03-25T17:29:01.210Z,102219.00
2019-03-25T17:31:34.229Z,102209.00
2019-03-25T17:34:07.341Z,102206.00
2019-03-25T17:36:41.393Z,102211.00
2019-03-25T17:39:14.106Z,102216.00
2019-03-25T17:41:47.091Z,102214.00
2019-03-25T17:44:19.917Z,102212.00
2019-03-25T17:46:53.039Z,102214.00
2019-03-25T17:49:26.073Z,102208.00
2019-03-25T17:51:59.213Z,102202.00
2019-03-25T17:54:32.200Z,102205.00
2019-03-25T17:57:05.356Z,102203.00
2019-03-25T17:59:38.358Z,102210.00
2019-03-25T18:02:11.498Z,102212.00
2019-03-25T18:04:44.645Z,102207.00
2019-03-25T18:07:17.489Z,102214.00
2019-03-25T18:09:50.577Z,102207.00
2019-03-25T18:12:23.692Z,102210.00
2019-03-25T18:14:56.753Z,102217.00
2019-03-25T18:17:29.562Z,102212.00
2019-03-25T18:20:02.753Z,102218.00
2019-03-25T18:22:39.809Z,102213.00
2019-03-25T18:25:10.583Z,102210.00
2019-03-25T18:27:43.315Z,102217.00
2019-03-25T18:30:18.358Z,102210.00
2019-03-25T18:32:51.437Z,102220.00
2019-03-25T18:35:30.203Z,102226.00
2019-03-25T18:38:02.844Z,102226.00
2019-03-25T18:40:35.919Z,102230.00
2019-03-25T18:43:08.765Z,102233.00
2019-03-25T18:45:41.579Z,102227.00
2019-03-25T18:48:14.214Z,102237.00
2019-03-25T18:50:47.076Z,102241.00
2019-03-25T18:53:20.306Z,102249.00
2019-03-25T18:55:53.195Z,102253.00
2019-03-25T18:58:44.809Z,102245.00
2019-03-25T19:01:17.610Z,102240.00
2019-03-25T19:03:50.678Z,102252.00
2019-03-25T19:06:23.524Z,102251.00
2019-03-25T19:08:56.669Z,102251.00
2019-03-25T19:11:31.398Z,102256.00
2019-03-25T19:14:03.710Z,102255.00
2019-03-25T19:16:36.746Z,102260.00
2019-03-25T19:19:09.345Z,102264.00
2019-03-25T19:21:41.997Z,102258.00
2019-03-25T19:24:14.907Z,102268.00
2019-03-25T19:26:47.686Z,102265.00
2019-03-25T19:29:20.335Z,102261.00
2019-03-25T19:31:53.367Z,102259.00
2019-03-25T19:34:26.021Z,102266.00
2019-03-25T19:36:59.822Z,102268.00
2019-03-25T19:39:32.430Z,102264.00
2019-03-25T19:42:06.250Z,102266.00
2019-03-25T19:44:38.889Z,102269.00
2019-03-25T19:47:11.988Z,102266.00
2019-03-25T19:49:44.889Z,102269.00
2019-03-25T19:52:17.427Z,102270.00
2019-03-25T19:54:50.123Z,102266.00
2019-03-25T19:57:23.127Z,102263.00
2019-03-25T19:59:57.427Z,102265.00
2019-03-25T20:02:30.626Z,102263.00
2019-03-25T20:05:03.911Z,102261.00
2019-03-25T20:07:37.191Z,102270.00
2019-03-25T20:10:12.996Z,102273.00
2019-03-25T20:12:45.626Z,102262.00
2019-03-25T20:15:19.340Z,102270.00
2019-03-25T20:17:51.815Z,102262.00
2019-03-25T20:20:24.662Z,102270.00
2019-03-25T20:22:57.319Z,102266.00
2019-03-25T20:25:30.101Z,102261.00
2019-03-25T20:28:02.817Z,102261.00
2019-03-25T20:30:35.397Z,102264.00
2019-03-25T20:33:08.203Z,102265.00
2019-03-25T20:35:40.979Z,102269.00
2019-03-25T20:38:14.005Z,102275.00
2019-03-25T20:40:46.933Z,102268.00
2019-03-25T20:43:19.724Z,102264.00
2019-03-25T20:45:53.668Z,102289.00
2019-03-25T20:48:26.319Z,102264.00
2019-03-25T20:50:59.296Z,102269.00
2019-03-25T20:53:31.925Z,102273.00
2019-03-25T20:56:04.811Z,102271.00
2019-03-25T20:58:37.430Z,102267.00
2019-03-25T21:01:10.514Z,102262.00
2019-03-25T21:03:43.409Z,102268.00
2019-03-25T21:06:16.330Z,102271.00
2019-03-25T21:08:49.222Z,102248.00
2019-03-25T21:11:21.944Z,102257.00
2019-03-25T21:13:54.739Z,102260.00
2019-03-25T21:16:28.316Z,102257.00
2019-03-25T21:19:01.243Z,102256.00
2019-03-25T21:21:33.994Z,102253.00
2019-03-25T21:24:06.888Z,102287.00
2019-03-25T21:26:39.241Z,102264.00
2019-03-25T21:29:12.340Z,102258.00
2019-03-25T21:31:45.067Z,102254.00
2019-03-25T21:34:18.204Z,102279.00
2019-03-25T21:36:51.007Z,102258.00
2019-03-25T21:39:24.058Z,102276.00
2019-03-25T21:41:56.859Z,102246.00
2019-03-25T21:44:30.891Z,102236.00
2019-03-25T21:47:04.842Z,102234.00
2019-03-25T21:49:37.657Z,102233.00
2019-03-25T21:52:10.625Z,102235.00
2019-03-25T21:54:43.497Z,102245.00
2019-03-25T21:57:17.514Z,102238.00
2019-03-25T21:59:50.309Z,102233.00
2019-03-25T22:02:24.359Z,102278.00
2019-03-25T22:04:57.444Z,102269.00
2019-03-25T22:07:31.538Z,102228.00
2019-03-25T22:10:04.166Z,102239.00
2019-03-25T22:12:37.228Z,102254.00
2019-03-25T22:15:14.569Z,102231.00
2019-03-25T22:17:47.514Z,102223.00
2019-03-25T22:20:20.191Z,102225.00
2019-03-25T22:22:53.588Z,102229.00
2019-03-25T22:25:26.482Z,102227.00
2019-03-25T22:27:59.875Z,102229.00
2019-03-25T22:30:32.855Z,102225.00
2019-03-25T22:33:06.384Z,102217.00
2019-03-25T22:35:39.035Z,102229.00
2019-03-25T22:38:11.720Z,102222.00
2019-03-25T22:40:44.913Z,102206.00
2019-03-25T22:43:17.631Z,102214.00
2019-03-25T22:45:51.348Z,102206.00
2019-03-25T22:48:24.193Z,102212.00
2019-03-25T22:50:57.652Z,102193.00
2019-03-25T22:53:30.584Z,102192.00
2019-03-25T22:56:03.768Z,102194.00
2019-03-25T22:58:36.576Z,102196.00
2019-03-25T23:01:09.805Z,102206.00
2019-03-25T23:03:42.882Z,102204.00
2019-03-25T23:06:16.375Z,102197.00
2019-03-25T23:08:50.042Z,102204.00
2019-03-25T23:11:23.064Z,102206.00
2019-03-25T23:13:55.912Z,102210.00
2019-03-25T23:16:29.031Z,102193.00
2019-03-25T23:19:01.748Z,102191.00
2019-03-25T23:21:35.169Z,102196.00
2019-03-25T23:24:08.157Z,102189.00
2019-03-25T23:26:41.288Z,102186.00
2019-03-25T23:29:14.029Z,102196.00
2019-03-25T23:31:47.382Z,102179.00
2019-03-25T23:34:20.217Z,102185.00
2019-03-25T23:36:53.308Z,102167.00
2019-03-25T23:39:26.728Z,102162.00
2019-03-25T23:41:59.764Z,102165.00
2019-03-25T23:44:32.588Z,102166.00
2019-03-25T23:47:05.688Z,102161.00
2019-03-25T23:49:38.545Z,102157.00
2019-03-25T23:52:11.738Z,102165.00
2019-03-25T23:54:44.719Z,102159.00
2019-03-25T23:57:17.712Z,102152.00
2019-03-25T23:59:50.688Z,102160.00
